QLK123D YSSY-YGTH
Flight info
| Callsign | QLK123D |
|---|---|
| Flight time | 1h 2m |
| Altitude | 24000 |
| Route | TESAT A576 KADOM H44 BORLI |
| Aircraft | DH8D/M-SDFGHRZ/LB1 |
Departure
| Time | 2026-04-12 03:17 |
|---|---|
| Airport | Sydney Kingsford Smith International Airport (YSSY) |
Arrival
| Time | 2026-04-12 04:19 |
|---|---|
| Airport | Griffith Airport (YGTH) |
| Time | Latitude | Longitude | Altitude | Speed | Heading |
|---|---|---|---|---|---|
| 2026-04-12 02:59 | -33.93371 | 151.17757 | 30 ft | 0 kts | 224° |
| 2026-04-12 03:11 | -33.93356 | 151.17711 | 30 ft | 9 kts | 291° |
| 2026-04-12 03:11 | -33.93356 | 151.17624 | 30 ft | 11 kts | 257° |
| 2026-04-12 03:12 | -33.93426 | 151.17595 | 30 ft | 16 kts | 189° |
| 2026-04-12 03:12 | -33.93558 | 151.17604 | 30 ft | 22 kts | 170° |
| 2026-04-12 03:12 | -33.93693 | 151.17674 | 30 ft | 20 kts | 137° |
| 2026-04-12 03:12 | -33.93773 | 151.17813 | 30 ft | 19 kts | 121° |
| 2026-04-12 03:13 | -33.93796 | 151.17964 | 30 ft | 18 kts | 73° |
| 2026-04-12 03:13 | -33.93761 | 151.18115 | 30 ft | 18 kts | 75° |
| 2026-04-12 03:13 | -33.93756 | 151.18231 | 30 ft | 11 kts | 145° |
| 2026-04-12 03:13 | -33.93821 | 151.18257 | 30 ft | 2 kts | 165° |
| 2026-04-12 03:14 | -33.93822 | 151.18257 | 30 ft | 0 kts | 166° |
| 2026-04-12 03:15 | -33.93824 | 151.18257 | 30 ft | 2 kts | 166° |
| 2026-04-12 03:15 | -33.93885 | 151.18277 | 30 ft | 12 kts | 165° |
| 2026-04-12 03:15 | -33.93924 | 151.18277 | 30 ft | 4 kts | 249° |
| 2026-04-12 03:16 | -33.93927 | 151.18260 | 30 ft | 0 kts | 253° |
| 2026-04-12 03:16 | -33.93927 | 151.18259 | 30 ft | 3 kts | 253° |
| 2026-04-12 03:16 | -33.93976 | 151.18048 | 30 ft | 69 kts | 255° |
| 2026-04-12 03:17 | -33.94179 | 151.17192 | 34 ft | 134 kts | 258° |
| 2026-04-12 03:17 | -33.94418 | 151.16057 | 456 ft | 144 kts | 258° |
| 2026-04-12 03:17 | -33.94638 | 151.14813 | 798 ft | 169 kts | 254° |
| 2026-04-12 03:17 | -33.94992 | 151.13507 | 1634 ft | 160 kts | 254° |
| 2026-04-12 03:18 | -33.95305 | 151.12265 | 2368 ft | 161 kts | 253° |
| 2026-04-12 03:18 | -33.95641 | 151.10887 | 2733 ft | 183 kts | 254° |
| 2026-04-12 03:18 | -33.96034 | 151.09315 | 2880 ft | 209 kts | 253° |
| 2026-04-12 03:18 | -33.96455 | 151.07611 | 2942 ft | 218 kts | 253° |
| 2026-04-12 03:19 | -33.96891 | 151.05835 | 3425 ft | 220 kts | 253° |
| 2026-04-12 03:19 | -33.97316 | 151.04073 | 4027 ft | 220 kts | 254° |
| 2026-04-12 03:19 | -33.97337 | 151.02240 | 4597 ft | 223 kts | 283° |
| 2026-04-12 03:19 | -33.96755 | 151.00508 | 5111 ft | 228 kts | 290° |
| 2026-04-12 03:20 | -33.96109 | 150.98752 | 5628 ft | 232 kts | 290° |
| 2026-04-12 03:20 | -33.95453 | 150.96973 | 6233 ft | 231 kts | 290° |
| 2026-04-12 03:20 | -33.94813 | 150.95230 | 6804 ft | 231 kts | 289° |
| 2026-04-12 03:20 | -33.94157 | 150.93436 | 7326 ft | 234 kts | 289° |
| 2026-04-12 03:21 | -33.93500 | 150.91626 | 7764 ft | 240 kts | 289° |
| 2026-04-12 03:21 | -33.92814 | 150.89728 | 7915 ft | 256 kts | 289° |
| 2026-04-12 03:21 | -33.92112 | 150.87791 | 8662 ft | 243 kts | 288° |
| 2026-04-12 03:21 | -33.91478 | 150.86075 | 9716 ft | 222 kts | 287° |
| 2026-04-12 03:22 | -33.90866 | 150.84395 | 10357 ft | 218 kts | 286° |
| 2026-04-12 03:22 | -33.90258 | 150.82713 | 10874 ft | 220 kts | 287° |
| 2026-04-12 03:22 | -33.89655 | 150.81045 | 11408 ft | 219 kts | 287° |
| 2026-04-12 03:22 | -33.89053 | 150.79382 | 11927 ft | 218 kts | 286° |
| 2026-04-12 03:23 | -33.88443 | 150.77692 | 12353 ft | 220 kts | 286° |
| 2026-04-12 03:23 | -33.87833 | 150.76001 | 12766 ft | 222 kts | 287° |
| 2026-04-12 03:23 | -33.87219 | 150.74307 | 13227 ft | 221 kts | 287° |
| 2026-04-12 03:23 | -33.86599 | 150.72591 | 13614 ft | 223 kts | 287° |
| 2026-04-12 03:24 | -33.85989 | 150.70894 | 14018 ft | 224 kts | 285° |
| 2026-04-12 03:24 | -33.85634 | 150.69075 | 14389 ft | 219 kts | 272° |
| 2026-04-12 03:24 | -33.85489 | 150.67276 | 14770 ft | 220 kts | 270° |
| 2026-04-12 03:24 | -33.85349 | 150.65437 | 15153 ft | 221 kts | 270° |
| 2026-04-12 03:25 | -33.85211 | 150.63605 | 15540 ft | 220 kts | 270° |
| 2026-04-12 03:25 | -33.85075 | 150.61789 | 15885 ft | 220 kts | 269° |
| 2026-04-12 03:25 | -33.84937 | 150.59930 | 16182 ft | 223 kts | 270° |
| 2026-04-12 03:25 | -33.84799 | 150.58102 | 16560 ft | 222 kts | 269° |
| 2026-04-12 03:26 | -33.84659 | 150.56241 | 16889 ft | 223 kts | 270° |
| 2026-04-12 03:26 | -33.84520 | 150.54382 | 17176 ft | 224 kts | 269° |
| 2026-04-12 03:26 | -33.84380 | 150.52525 | 17456 ft | 225 kts | 270° |
| 2026-04-12 03:26 | -33.84237 | 150.50655 | 17835 ft | 223 kts | 269° |
| 2026-04-12 03:27 | -33.84096 | 150.48781 | 18052 ft | 226 kts | 269° |
| 2026-04-12 03:27 | -33.83955 | 150.46910 | 18369 ft | 226 kts | 269° |
| 2026-04-12 03:27 | -33.83811 | 150.45010 | 18590 ft | 228 kts | 270° |
| 2026-04-12 03:27 | -33.83666 | 150.43115 | 18866 ft | 229 kts | 269° |
| 2026-04-12 03:28 | -33.83520 | 150.41209 | 19183 ft | 228 kts | 269° |
| 2026-04-12 03:28 | -33.83374 | 150.39296 | 19357 ft | 232 kts | 269° |
| 2026-04-12 03:28 | -33.83227 | 150.37375 | 19609 ft | 232 kts | 269° |
| 2026-04-12 03:28 | -33.83079 | 150.35452 | 19820 ft | 234 kts | 269° |
| 2026-04-12 03:29 | -33.82929 | 150.33493 | 20039 ft | 235 kts | 270° |
| 2026-04-12 03:29 | -33.82778 | 150.31545 | 20247 ft | 237 kts | 269° |
| 2026-04-12 03:29 | -33.82626 | 150.29576 | 20515 ft | 236 kts | 269° |
| 2026-04-12 03:29 | -33.82473 | 150.27588 | 20647 ft | 239 kts | 269° |
| 2026-04-12 03:30 | -33.82320 | 150.25633 | 20866 ft | 240 kts | 269° |
| 2026-04-12 03:30 | -33.82166 | 150.23654 | 21125 ft | 237 kts | 269° |
| 2026-04-12 03:30 | -33.82010 | 150.21639 | 21178 ft | 243 kts | 269° |
| 2026-04-12 03:30 | -33.81853 | 150.19635 | 21457 ft | 240 kts | 269° |
| 2026-04-12 03:31 | -33.81694 | 150.17606 | 21583 ft | 242 kts | 269° |
| 2026-04-12 03:31 | -33.81538 | 150.15608 | 21748 ft | 243 kts | 268° |
| 2026-04-12 03:31 | -33.81378 | 150.13556 | 21794 ft | 248 kts | 269° |
| 2026-04-12 03:31 | -33.81216 | 150.11519 | 22056 ft | 244 kts | 269° |
| 2026-04-12 03:32 | -33.81055 | 150.09485 | 22157 ft | 247 kts | 268° |
| 2026-04-12 03:32 | -33.80892 | 150.07436 | 22366 ft | 245 kts | 269° |
| 2026-04-12 03:32 | -33.80730 | 150.05382 | 22390 ft | 250 kts | 269° |
| 2026-04-12 03:32 | -33.80565 | 150.03304 | 22523 ft | 251 kts | 268° |
| 2026-04-12 03:33 | -33.80400 | 150.01227 | 22647 ft | 250 kts | 268° |
| 2026-04-12 03:33 | -33.80232 | 149.99124 | 22775 ft | 250 kts | 268° |
| 2026-04-12 03:33 | -33.80064 | 149.97041 | 22953 ft | 249 kts | 268° |
| 2026-04-12 03:33 | -33.79899 | 149.94983 | 22963 ft | 253 kts | 268° |
| 2026-04-12 03:34 | -33.79730 | 149.92882 | 23087 ft | 254 kts | 269° |
| 2026-04-12 03:34 | -33.79561 | 149.90781 | 23213 ft | 252 kts | 268° |
| 2026-04-12 03:34 | -33.79390 | 149.88660 | 23269 ft | 254 kts | 268° |
| 2026-04-12 03:34 | -33.79217 | 149.86542 | 23393 ft | 253 kts | 267° |
| 2026-04-12 03:35 | -33.79045 | 149.84451 | 23513 ft | 253 kts | 266° |
| 2026-04-12 03:35 | -33.78875 | 149.82327 | 23531 ft | 256 kts | 267° |
| 2026-04-12 03:35 | -33.78702 | 149.80211 | 23692 ft | 254 kts | 267° |
| 2026-04-12 03:35 | -33.78527 | 149.78059 | 24076 ft | 259 kts | 267° |
| 2026-04-12 03:36 | -33.78345 | 149.75867 | 23855 ft | 267 kts | 267° |
| 2026-04-12 03:36 | -33.78175 | 149.73674 | 23888 ft | 269 kts | 266° |
| 2026-04-12 03:36 | -33.77991 | 149.71426 | 23901 ft | 271 kts | 266° |
| 2026-04-12 03:36 | -33.77805 | 149.69165 | 23908 ft | 274 kts | 267° |
| 2026-04-12 03:37 | -33.77617 | 149.66878 | 23906 ft | 277 kts | 267° |
| 2026-04-12 03:37 | -33.77426 | 149.64572 | 23902 ft | 279 kts | 267° |
| 2026-04-12 03:37 | -33.77232 | 149.62239 | 23900 ft | 282 kts | 266° |
| 2026-04-12 03:37 | -33.77071 | 149.59891 | 23911 ft | 280 kts | 263° |
| 2026-04-12 03:38 | -33.77185 | 149.57571 | 23914 ft | 277 kts | 257° |
| 2026-04-12 03:38 | -33.77382 | 149.55278 | 23907 ft | 279 kts | 257° |
| 2026-04-12 03:38 | -33.77583 | 149.52940 | 23914 ft | 280 kts | 257° |
| 2026-04-12 03:38 | -33.77778 | 149.50635 | 23919 ft | 281 kts | 257° |
| 2026-04-12 03:39 | -33.77975 | 149.48288 | 23920 ft | 282 kts | 257° |
| 2026-04-12 03:39 | -33.78170 | 149.45932 | 23921 ft | 283 kts | 257° |
| 2026-04-12 03:39 | -33.78362 | 149.43605 | 23924 ft | 283 kts | 256° |
| 2026-04-12 03:39 | -33.78556 | 149.41234 | 23924 ft | 284 kts | 257° |
| 2026-04-12 03:40 | -33.78749 | 149.38864 | 23940 ft | 284 kts | 257° |
| 2026-04-12 03:40 | -33.78938 | 149.36531 | 23936 ft | 284 kts | 256° |
| 2026-04-12 03:40 | -33.79131 | 149.34148 | 23938 ft | 285 kts | 257° |
| 2026-04-12 03:40 | -33.79320 | 149.31790 | 23933 ft | 285 kts | 257° |
| 2026-04-12 03:41 | -33.79512 | 149.29398 | 23933 ft | 286 kts | 257° |
| 2026-04-12 03:41 | -33.79702 | 149.27016 | 23937 ft | 286 kts | 257° |
| 2026-04-12 03:41 | -33.79892 | 149.24634 | 23941 ft | 286 kts | 257° |
| 2026-04-12 03:41 | -33.80080 | 149.22273 | 23941 ft | 286 kts | 257° |
| 2026-04-12 03:42 | -33.80269 | 149.19884 | 23946 ft | 286 kts | 257° |
| 2026-04-12 03:42 | -33.80457 | 149.17509 | 23941 ft | 286 kts | 256° |
| 2026-04-12 03:42 | -33.80644 | 149.15134 | 23948 ft | 286 kts | 256° |
| 2026-04-12 03:42 | -33.80832 | 149.12743 | 23949 ft | 286 kts | 256° |
| 2026-04-12 03:43 | -33.81019 | 149.10359 | 23955 ft | 287 kts | 256° |
| 2026-04-12 03:43 | -33.81204 | 149.07999 | 23959 ft | 287 kts | 256° |
| 2026-04-12 03:43 | -33.81390 | 149.05615 | 23950 ft | 288 kts | 257° |
| 2026-04-12 03:43 | -33.81577 | 149.03210 | 23954 ft | 288 kts | 256° |
| 2026-04-12 03:44 | -33.81763 | 149.00822 | 23950 ft | 288 kts | 256° |
| 2026-04-12 03:44 | -33.81948 | 148.98427 | 23953 ft | 288 kts | 256° |
| 2026-04-12 03:44 | -33.82133 | 148.96025 | 23947 ft | 288 kts | 256° |
| 2026-04-12 03:44 | -33.82319 | 148.93620 | 23944 ft | 288 kts | 256° |
| 2026-04-12 03:45 | -33.82504 | 148.91216 | 23939 ft | 289 kts | 256° |
| 2026-04-12 03:45 | -33.82687 | 148.88817 | 23942 ft | 289 kts | 256° |
| 2026-04-12 03:45 | -33.82871 | 148.86417 | 23953 ft | 288 kts | 256° |
| 2026-04-12 03:45 | -33.83052 | 148.84035 | 23950 ft | 288 kts | 256° |
| 2026-04-12 03:46 | -33.83235 | 148.81636 | 23951 ft | 288 kts | 257° |
| 2026-04-12 03:46 | -33.83419 | 148.79211 | 23948 ft | 288 kts | 256° |
| 2026-04-12 03:46 | -33.83599 | 148.76836 | 23951 ft | 288 kts | 256° |
| 2026-04-12 03:46 | -33.83780 | 148.74437 | 23954 ft | 289 kts | 256° |
| 2026-04-12 03:47 | -33.83962 | 148.72023 | 23948 ft | 289 kts | 256° |
| 2026-04-12 03:47 | -33.84143 | 148.69601 | 23942 ft | 289 kts | 256° |
| 2026-04-12 03:47 | -33.84322 | 148.67226 | 23949 ft | 288 kts | 256° |
| 2026-04-12 03:47 | -33.84542 | 148.64819 | 23948 ft | 285 kts | 253° |
| 2026-04-12 03:48 | -33.84911 | 148.62488 | 23949 ft | 284 kts | 251° |
| 2026-04-12 03:48 | -33.85308 | 148.60162 | 23950 ft | 284 kts | 251° |
| 2026-04-12 03:48 | -33.85703 | 148.57842 | 23947 ft | 284 kts | 251° |
| 2026-04-12 03:48 | -33.86097 | 148.55513 | 23959 ft | 284 kts | 251° |
| 2026-04-12 03:49 | -33.86491 | 148.53181 | 23962 ft | 284 kts | 250° |
| 2026-04-12 03:49 | -33.86885 | 148.50841 | 23951 ft | 285 kts | 251° |
| 2026-04-12 03:49 | -33.87273 | 148.48520 | 23956 ft | 285 kts | 251° |
| 2026-04-12 03:49 | -33.87666 | 148.46173 | 23954 ft | 286 kts | 251° |
| 2026-04-12 03:50 | -33.88054 | 148.43849 | 23962 ft | 285 kts | 251° |
| 2026-04-12 03:50 | -33.88445 | 148.41501 | 23963 ft | 286 kts | 251° |
| 2026-04-12 03:50 | -33.88835 | 148.39156 | 23963 ft | 286 kts | 251° |
| 2026-04-12 03:50 | -33.89220 | 148.36830 | 23963 ft | 286 kts | 251° |
| 2026-04-12 03:51 | -33.89609 | 148.34485 | 23966 ft | 286 kts | 252° |
| 2026-04-12 03:51 | -33.90001 | 148.32123 | 23953 ft | 287 kts | 252° |
| 2026-04-12 03:51 | -33.90392 | 148.29753 | 23948 ft | 287 kts | 252° |
| 2026-04-12 03:51 | -33.90781 | 148.27400 | 23952 ft | 288 kts | 251° |
| 2026-04-12 03:52 | -33.91171 | 148.25037 | 23954 ft | 289 kts | 252° |
| 2026-04-12 03:52 | -33.91560 | 148.22672 | 23946 ft | 289 kts | 251° |
| 2026-04-12 03:52 | -33.91951 | 148.20294 | 23959 ft | 289 kts | 252° |
| 2026-04-12 03:52 | -33.92340 | 148.17926 | 23952 ft | 290 kts | 251° |
| 2026-04-12 03:53 | -33.92730 | 148.15543 | 23952 ft | 290 kts | 252° |
| 2026-04-12 03:53 | -33.93120 | 148.13165 | 23955 ft | 290 kts | 251° |
| 2026-04-12 03:53 | -33.93511 | 148.10777 | 23954 ft | 290 kts | 252° |
| 2026-04-12 03:53 | -33.93902 | 148.08380 | 23960 ft | 290 kts | 252° |
| 2026-04-12 03:54 | -33.94291 | 148.05995 | 23961 ft | 291 kts | 252° |
| 2026-04-12 03:54 | -33.94682 | 148.03600 | 23952 ft | 291 kts | 251° |
| 2026-04-12 03:54 | -33.95069 | 148.01219 | 23949 ft | 291 kts | 252° |
| 2026-04-12 03:54 | -33.95458 | 147.98824 | 23958 ft | 291 kts | 252° |
| 2026-04-12 03:55 | -33.95843 | 147.96455 | 23955 ft | 291 kts | 252° |
| 2026-04-12 03:55 | -33.96231 | 147.94057 | 23950 ft | 292 kts | 251° |
| 2026-04-12 03:55 | -33.96617 | 147.91673 | 23960 ft | 291 kts | 252° |
| 2026-04-12 03:55 | -33.97004 | 147.89279 | 23961 ft | 291 kts | 251° |
| 2026-04-12 03:56 | -33.97393 | 147.86870 | 23966 ft | 291 kts | 252° |
| 2026-04-12 03:56 | -33.97777 | 147.84486 | 23971 ft | 291 kts | 251° |
| 2026-04-12 03:56 | -33.98165 | 147.82080 | 23972 ft | 292 kts | 252° |
| 2026-04-12 03:56 | -33.98548 | 147.79698 | 23981 ft | 291 kts | 252° |
| 2026-04-12 03:57 | -33.98933 | 147.77301 | 23991 ft | 291 kts | 252° |
| 2026-04-12 03:57 | -33.99318 | 147.74901 | 23971 ft | 292 kts | 252° |
| 2026-04-12 03:57 | -33.99703 | 147.72499 | 23977 ft | 292 kts | 252° |
| 2026-04-12 03:57 | -34.00036 | 147.70081 | 23980 ft | 294 kts | 255° |
| 2026-04-12 03:58 | -34.00312 | 147.67645 | 23975 ft | 294 kts | 255° |
| 2026-04-12 03:58 | -34.00584 | 147.65207 | 23977 ft | 294 kts | 255° |
| 2026-04-12 03:58 | -34.00859 | 147.62753 | 23983 ft | 294 kts | 255° |
| 2026-04-12 03:58 | -34.01131 | 147.60324 | 23984 ft | 295 kts | 255° |
| 2026-04-12 03:59 | -34.01407 | 147.57875 | 23986 ft | 294 kts | 255° |
| 2026-04-12 03:59 | -34.01683 | 147.55421 | 23978 ft | 294 kts | 255° |
| 2026-04-12 03:59 | -34.01959 | 147.52972 | 23969 ft | 295 kts | 255° |
| 2026-04-12 03:59 | -34.02230 | 147.50565 | 23972 ft | 294 kts | 255° |
| 2026-04-12 04:00 | -34.02504 | 147.48123 | 23980 ft | 294 kts | 255° |
| 2026-04-12 04:00 | -34.02777 | 147.45688 | 23977 ft | 294 kts | 255° |
| 2026-04-12 04:00 | -34.03052 | 147.43242 | 23976 ft | 294 kts | 255° |
| 2026-04-12 04:00 | -34.03320 | 147.40834 | 23882 ft | 281 kts | 254° |
| 2026-04-12 04:01 | -34.03577 | 147.38557 | 23290 ft | 276 kts | 255° |
| 2026-04-12 04:01 | -34.03838 | 147.36269 | 22629 ft | 274 kts | 255° |
| 2026-04-12 04:01 | -34.04095 | 147.34010 | 21890 ft | 274 kts | 256° |
| 2026-04-12 04:01 | -34.04354 | 147.31738 | 21140 ft | 275 kts | 256° |
| 2026-04-12 04:02 | -34.04610 | 147.29466 | 20402 ft | 276 kts | 256° |
| 2026-04-12 04:02 | -34.05117 | 147.24936 | 18942 ft | 277 kts | 257° |
| 2026-04-12 04:02 | -34.05375 | 147.22617 | 18201 ft | 278 kts | 257° |
| 2026-04-12 04:03 | -34.05625 | 147.20354 | 17461 ft | 277 kts | 258° |
| 2026-04-12 04:03 | -34.05881 | 147.18037 | 16712 ft | 277 kts | 258° |
| 2026-04-12 04:03 | -34.06132 | 147.15755 | 16057 ft | 274 kts | 258° |
| 2026-04-12 04:03 | -34.06372 | 147.13548 | 15601 ft | 265 kts | 257° |
| 2026-04-12 04:04 | -34.06605 | 147.11401 | 15251 ft | 252 kts | 258° |
| 2026-04-12 04:04 | -34.06827 | 147.09343 | 14958 ft | 240 kts | 258° |
| 2026-04-12 04:04 | -34.07037 | 147.07411 | 14691 ft | 226 kts | 257° |
| 2026-04-12 04:04 | -34.07233 | 147.05594 | 14441 ft | 212 kts | 257° |
| 2026-04-12 04:05 | -34.07423 | 147.03857 | 14222 ft | 214 kts | 257° |
| 2026-04-12 04:05 | -34.07632 | 147.01968 | 13974 ft | 237 kts | 257° |
| 2026-04-12 04:05 | -34.07858 | 146.99937 | 13709 ft | 253 kts | 258° |
| 2026-04-12 04:05 | -34.08094 | 146.97788 | 13437 ft | 266 kts | 258° |
| 2026-04-12 04:06 | -34.08337 | 146.95550 | 13134 ft | 277 kts | 258° |
| 2026-04-12 04:06 | -34.08593 | 146.93179 | 12814 ft | 286 kts | 259° |
| 2026-04-12 04:06 | -34.08850 | 146.90781 | 12497 ft | 293 kts | 259° |
| 2026-04-12 04:06 | -34.09113 | 146.88321 | 12164 ft | 295 kts | 258° |
| 2026-04-12 04:07 | -34.09365 | 146.85941 | 11836 ft | 285 kts | 259° |
| 2026-04-12 04:07 | -34.09611 | 146.83615 | 11519 ft | 275 kts | 258° |
| 2026-04-12 04:07 | -34.09850 | 146.81360 | 11221 ft | 267 kts | 258° |
| 2026-04-12 04:07 | -34.10086 | 146.79138 | 10933 ft | 261 kts | 258° |
| 2026-04-12 04:08 | -34.10313 | 146.77014 | 10657 ft | 256 kts | 258° |
| 2026-04-12 04:08 | -34.10537 | 146.74913 | 10374 ft | 251 kts | 258° |
| 2026-04-12 04:08 | -34.10759 | 146.72838 | 10038 ft | 248 kts | 258° |
| 2026-04-12 04:08 | -34.10976 | 146.70810 | 9747 ft | 239 kts | 258° |
| 2026-04-12 04:09 | -34.11185 | 146.68855 | 9478 ft | 230 kts | 258° |
| 2026-04-12 04:09 | -34.11386 | 146.66966 | 9231 ft | 224 kts | 258° |
| 2026-04-12 04:09 | -34.11584 | 146.65114 | 8979 ft | 220 kts | 258° |
| 2026-04-12 04:09 | -34.11775 | 146.63319 | 8733 ft | 215 kts | 258° |
| 2026-04-12 04:10 | -34.11964 | 146.61528 | 8495 ft | 213 kts | 258° |
| 2026-04-12 04:10 | -34.12152 | 146.59763 | 8266 ft | 211 kts | 258° |
| 2026-04-12 04:10 | -34.12340 | 146.57987 | 8040 ft | 214 kts | 259° |
| 2026-04-12 04:10 | -34.12530 | 146.56192 | 7810 ft | 217 kts | 259° |
| 2026-04-12 04:11 | -34.12721 | 146.54384 | 7574 ft | 221 kts | 259° |
| 2026-04-12 04:11 | -34.12915 | 146.52541 | 7326 ft | 224 kts | 259° |
| 2026-04-12 04:11 | -34.13112 | 146.50661 | 7071 ft | 227 kts | 260° |
| 2026-04-12 04:11 | -34.13310 | 146.48766 | 6820 ft | 229 kts | 260° |
| 2026-04-12 04:12 | -34.13511 | 146.46826 | 6563 ft | 231 kts | 260° |
| 2026-04-12 04:12 | -34.13709 | 146.44911 | 6305 ft | 233 kts | 260° |
| 2026-04-12 04:12 | -34.13908 | 146.42963 | 6047 ft | 233 kts | 261° |
| 2026-04-12 04:12 | -34.14106 | 146.41069 | 5788 ft | 225 kts | 260° |
| 2026-04-12 04:13 | -34.14302 | 146.39217 | 5538 ft | 215 kts | 260° |
| 2026-04-12 04:13 | -34.14484 | 146.37479 | 5308 ft | 206 kts | 260° |
| 2026-04-12 04:13 | -34.14661 | 146.35792 | 5084 ft | 197 kts | 259° |
| 2026-04-12 04:13 | -34.14881 | 146.34203 | 4866 ft | 186 kts | 251° |
| 2026-04-12 04:14 | -34.15348 | 146.32812 | 4690 ft | 176 kts | 244° |
| 2026-04-12 04:14 | -34.15866 | 146.31445 | 4498 ft | 181 kts | 244° |
| 2026-04-12 04:14 | -34.16400 | 146.30037 | 4293 ft | 186 kts | 245° |
| 2026-04-12 04:14 | -34.16947 | 146.28589 | 4083 ft | 191 kts | 244° |
| 2026-04-12 04:15 | -34.17507 | 146.27104 | 3867 ft | 196 kts | 244° |
| 2026-04-12 04:15 | -34.18068 | 146.25610 | 3647 ft | 198 kts | 245° |
| 2026-04-12 04:15 | -34.18637 | 146.24095 | 3389 ft | 197 kts | 244° |
| 2026-04-12 04:15 | -34.19196 | 146.22609 | 3131 ft | 195 kts | 244° |
| 2026-04-12 04:16 | -34.19754 | 146.21121 | 2870 ft | 187 kts | 244° |
| 2026-04-12 04:16 | -34.20260 | 146.19771 | 2623 ft | 170 kts | 244° |
| 2026-04-12 04:16 | -34.20726 | 146.18520 | 2397 ft | 155 kts | 244° |
| 2026-04-12 04:16 | -34.21140 | 146.17412 | 2177 ft | 134 kts | 244° |
| 2026-04-12 04:17 | -34.21513 | 146.16408 | 2023 ft | 132 kts | 244° |
| 2026-04-12 04:17 | -34.21888 | 146.15390 | 1882 ft | 135 kts | 244° |
| 2026-04-12 04:17 | -34.22281 | 146.14340 | 1700 ft | 138 kts | 244° |
| 2026-04-12 04:17 | -34.22679 | 146.13271 | 1515 ft | 139 kts | 244° |
| 2026-04-12 04:18 | -34.23074 | 146.12207 | 1326 ft | 138 kts | 245° |
| 2026-04-12 04:18 | -34.23460 | 146.11169 | 1142 ft | 136 kts | 244° |
| 2026-04-12 04:18 | -34.23879 | 146.10139 | 956 ft | 133 kts | 245° |
| 2026-04-12 04:18 | -34.24243 | 146.09128 | 818 ft | 132 kts | 246° |
| 2026-04-12 04:19 | -34.24617 | 146.08118 | 691 ft | 135 kts | 244° |
| 2026-04-12 04:19 | -34.25016 | 146.07066 | 502 ft | 138 kts | 245° |
| 2026-04-12 04:19 | -34.25392 | 146.06065 | 435 ft | 119 kts | 246° |
| 2026-04-12 04:19 | -34.25619 | 146.05460 | 436 ft | 47 kts | 246° |
| 2026-04-12 04:20 | -34.25705 | 146.05246 | 434 ft | 18 kts | 220° |
| 2026-04-12 04:20 | -34.25701 | 146.05228 | 434 ft | 10 kts | 78° |
| 2026-04-12 04:20 | -34.25641 | 146.05405 | 435 ft | 32 kts | 68° |
| 2026-04-12 04:20 | -34.25554 | 146.05635 | 434 ft | 28 kts | 65° |
| 2026-04-12 04:21 | -34.25498 | 146.05791 | 436 ft | 10 kts | 67° |
| 2026-04-12 04:21 | -34.25485 | 146.05850 | 436 ft | 9 kts | 60° |
| 2026-04-12 04:21 | -34.25431 | 146.05965 | 435 ft | 18 kts | 64° |
| 2026-04-12 04:21 | -34.25383 | 146.06093 | 434 ft | 12 kts | 66° |
| 2026-04-12 04:22 | -34.25402 | 146.06171 | 435 ft | 10 kts | 155° |
| 2026-04-12 04:22 | -34.25448 | 146.06203 | 436 ft | 5 kts | 112° |
| 2026-04-12 04:22 | -34.25440 | 146.06244 | 437 ft | 0 kts | 66° |
| 2026-04-12 04:22 | -34.25441 | 146.06256 | 437 ft | 2 kts | 127° |
| 2026-04-12 04:23 | -34.25454 | 146.06265 | 438 ft | 1 kts | 156° |
| 2026-04-12 04:23 | -34.25456 | 146.06265 | 438 ft | 0 kts | 156° |